Quixabeira, Brazil
Current Conditions -  °F | °C
As of 2:00 AM on Tuesday 27 Jan 2015 (Local Time) from SBPL Reporting Station
Clear Clear  
Wind Chill: 27°   Ceiling: Unl
Heat Index: 28°   Visibility: 6mi
Dew Point: 18°   Wind: 8mph
Humidity: 58%   Direction: 80°E
Pressure: 29.91"   Gusts: NA
Location:  11.41°S, 40.13°W
Report Text: SBPL 270500Z 08007KT CAVOK 27/18 Q1013
Loading
Personal Weather Stations






























Interactive Weather Map New forecast layout! Learn more

10-Day Weather Forecast

Advertisements
Track Severe Weather on mobile